createdAt,value
2023-05-03T00:03:56.786Z,6.33
2023-05-03T00:08:58.314Z,6.15
2023-05-03T00:13:59.836Z,6.07
2023-05-03T00:19:01.363Z,6.00
2023-05-03T00:24:02.966Z,5.92
2023-05-03T00:29:04.506Z,5.81
2023-05-03T00:34:06.058Z,5.71
2023-05-03T00:39:07.638Z,5.64
2023-05-03T00:44:09.278Z,5.73
2023-05-03T00:49:11.253Z,5.64
2023-05-03T00:54:13.170Z,5.73
2023-05-03T00:59:15.002Z,5.65
2023-05-03T01:04:18.831Z,5.59
2023-05-03T01:09:38.565Z,5.53
2023-05-03T01:14:46.133Z,5.29
2023-05-03T01:19:55.040Z,5.20
2023-05-03T01:25:02.548Z,4.97
2023-05-03T01:30:05.676Z,4.85
2023-05-03T01:35:26.531Z,4.94
2023-05-03T01:40:30.786Z,4.87
2023-05-03T01:45:32.494Z,4.87
2023-05-03T01:50:34.071Z,4.99
2023-05-03T01:55:35.693Z,5.10
2023-05-03T02:00:38.490Z,5.01
2023-05-03T02:05:40.093Z,4.97
2023-05-03T02:10:44.027Z,4.82
2023-05-03T02:15:45.589Z,4.79
2023-05-03T02:20:47.263Z,4.82
2023-05-03T02:25:48.875Z,4.68
2023-05-03T02:30:50.414Z,4.54
2023-05-03T02:35:52.063Z,4.49
2023-05-03T02:40:53.682Z,4.44
2023-05-03T02:45:55.357Z,4.44
2023-05-03T02:50:58.252Z,4.47
2023-05-03T02:56:00.039Z,4.37
2023-05-03T03:01:01.732Z,4.47
2023-05-03T03:06:05.431Z,4.46
2023-05-03T03:11:09.613Z,4.48
2023-05-03T03:16:11.465Z,4.39
2023-05-03T03:21:13.211Z,4.42
2023-05-03T03:26:14.831Z,4.27
2023-05-03T03:31:16.952Z,4.17
2023-05-03T03:36:18.758Z,4.20
2023-05-03T03:41:22.819Z,4.19
2023-05-03T03:46:25.436Z,4.21
2023-05-03T03:51:30.058Z,4.16
2023-05-03T03:56:32.814Z,4.28
2023-05-03T04:01:35.223Z,4.33
2023-05-03T04:06:38.954Z,4.25
2023-05-03T04:11:45.557Z,4.31
2023-05-03T04:16:48.199Z,4.44
2023-05-03T04:21:49.944Z,4.44
2023-05-03T04:26:53.693Z,4.48
2023-05-03T04:32:01.967Z,4.49
2023-05-03T04:37:03.634Z,4.22
2023-05-03T04:42:05.354Z,3.96
2023-05-03T04:47:06.986Z,3.95
2023-05-03T04:52:08.931Z,4.14
2023-05-03T04:57:10.934Z,4.31
2023-05-03T05:02:12.586Z,4.76
2023-05-03T05:07:14.257Z,5.10
2023-05-03T05:12:18.165Z,6.04
2023-05-03T05:17:19.863Z,7.12
2023-05-03T05:22:21.950Z,7.98
2023-05-03T05:27:29.742Z,9.19
2023-05-03T05:32:33.979Z,9.54
2023-05-03T05:37:36.323Z,9.55
2023-05-03T05:42:40.058Z,10.15
2023-05-03T05:47:42.274Z,9.93
2023-05-03T05:52:44.260Z,10.66
2023-05-03T05:57:47.668Z,11.60
2023-05-03T06:02:51.524Z,11.21
2023-05-03T06:07:56.007Z,11.84
2023-05-03T06:12:57.753Z,11.60
2023-05-03T06:18:01.077Z,11.79
2023-05-03T06:23:02.716Z,11.90
2023-05-03T06:28:04.537Z,13.06
2023-05-03T06:33:12.889Z,13.26
2023-05-03T06:38:14.824Z,13.67
2023-05-03T06:43:16.934Z,13.14
2023-05-03T06:48:25.065Z,12.53
2023-05-03T06:53:26.739Z,13.75
2023-05-03T06:58:28.238Z,14.76
2023-05-03T07:03:29.821Z,16.46
2023-05-03T07:08:31.526Z,16.45
2023-05-03T07:13:33.068Z,16.35
2023-05-03T07:18:34.647Z,16.64
2023-05-03T07:23:36.206Z,15.48
2023-05-03T07:28:37.749Z,15.03
2023-05-03T07:33:39.347Z,15.75
2023-05-03T07:38:40.967Z,14.39
2023-05-03T07:43:42.673Z,14.84
2023-05-03T07:48:44.218Z,15.17
2023-05-03T07:53:45.784Z,14.42
2023-05-03T07:58:50.934Z,15.77
2023-05-03T08:03:59.076Z,15.95
2023-05-03T08:09:00.921Z,15.29
2023-05-03T08:14:02.602Z,15.94
2023-05-03T08:19:04.161Z,15.73
2023-05-03T08:24:05.782Z,15.66
2023-05-03T08:29:07.691Z,15.69
2023-05-03T08:34:09.372Z,15.19
2023-05-03T08:39:10.885Z,15.33
2023-05-03T08:44:12.639Z,16.43
2023-05-03T08:49:14.873Z,16.01
2023-05-03T08:54:16.476Z,16.28
2023-05-03T08:59:18.012Z,16.88
2023-05-03T09:04:19.714Z,16.75
2023-05-03T09:09:31.378Z,16.94
2023-05-03T09:14:45.398Z,18.01
2023-05-03T09:19:56.824Z,17.19
2023-05-03T09:25:00.389Z,17.43
2023-05-03T09:30:18.214Z,18.07
2023-05-03T09:35:19.912Z,17.61
2023-05-03T09:40:21.550Z,18.07
2023-05-03T09:45:25.919Z,19.40
2023-05-03T09:50:27.843Z,18.12
2023-05-03T09:55:40.076Z,17.83
2023-05-03T10:00:42.415Z,18.63
2023-05-03T10:05:48.494Z,19.28
2023-05-03T10:10:50.859Z,18.62
2023-05-03T10:15:59.866Z,18.71
2023-05-03T10:21:07.152Z,19.30
2023-05-03T10:26:08.659Z,20.13
2023-05-03T10:31:43.652Z,19.15
2023-05-03T10:36:49.773Z,18.88
2023-05-03T10:41:58.648Z,18.98
2023-05-03T10:47:29.831Z,20.49
2023-05-03T10:52:40.472Z,20.16
2023-05-03T10:57:47.234Z,19.39
2023-05-03T11:03:09.699Z,20.57
2023-05-03T11:08:14.084Z,19.73
2023-05-03T11:13:15.740Z,20.07
2023-05-03T11:18:17.454Z,22.43
2023-05-03T11:23:19.153Z,23.46
2023-05-03T11:28:20.785Z,22.15
2023-05-03T11:33:22.441Z,20.74
2023-05-03T11:38:23.973Z,22.34
2023-05-03T11:43:26.309Z,21.33
2023-05-03T11:48:28.035Z,21.77
2023-05-03T11:53:29.706Z,21.64
2023-05-03T11:58:31.338Z,23.72
2023-05-03T12:03:33.474Z,24.52
2023-05-03T12:08:37.905Z,22.22
2023-05-03T12:13:41.723Z,21.33
2023-05-03T12:19:01.417Z,22.10
2023-05-03T12:24:05.933Z,22.49
2023-05-03T12:29:07.765Z,23.32
2023-05-03T12:39:21.928Z,21.89
2023-05-03T12:44:24.005Z,23.60
2023-05-03T12:49:25.965Z,22.53
2023-05-03T12:54:27.883Z,20.85
2023-05-03T13:14:50.322Z,21.93
2023-05-03T13:19:53.351Z,22.13
2023-05-03T13:24:54.912Z,21.77
2023-05-03T13:29:56.558Z,22.83
2023-05-03T13:34:58.140Z,24.05
2023-05-03T13:39:59.667Z,24.54
2023-05-03T13:45:01.315Z,23.73
2023-05-03T13:50:03.195Z,22.08
2023-05-03T13:55:05.451Z,22.10
2023-05-03T14:00:07.874Z,22.25
2023-05-03T14:05:09.891Z,22.98
2023-05-03T14:10:11.969Z,23.54
2023-05-03T14:15:13.669Z,24.49
2023-05-03T14:20:15.352Z,24.25
2023-05-03T14:25:16.931Z,22.65
2023-05-03T14:30:18.565Z,22.65
2023-05-03T14:35:20.287Z,23.22
2023-05-03T14:40:22.002Z,24.13
2023-05-03T14:45:23.575Z,23.45
2023-05-03T14:50:25.296Z,23.40
2023-05-03T14:55:26.840Z,23.46
2023-05-03T15:00:28.471Z,23.66
2023-05-03T15:05:31.216Z,24.01
2023-05-03T15:10:34.179Z,23.06
2023-05-03T15:15:40.087Z,23.22
2023-05-03T15:20:41.540Z,22.87
2023-05-03T15:25:43.099Z,23.06
2023-05-03T15:30:44.696Z,23.96
2023-05-03T15:35:46.289Z,24.33
2023-05-03T15:40:47.853Z,25.32
2023-05-03T15:45:52.189Z,24.93
2023-05-03T15:50:53.761Z,24.01
2023-05-03T15:55:55.816Z,26.03
2023-05-03T16:00:57.918Z,26.52
2023-05-03T16:05:59.992Z,25.41
2023-05-03T16:11:01.620Z,24.51
2023-05-03T16:16:03.324Z,24.23
2023-05-03T16:21:04.936Z,25.37
2023-05-03T16:26:13.290Z,25.60
2023-05-03T16:31:15.243Z,25.90
2023-05-03T16:36:16.869Z,25.87
2023-05-03T16:41:18.545Z,25.75
2023-05-03T16:46:20.217Z,24.69
2023-05-03T16:51:21.850Z,25.06
2023-05-03T16:56:24.533Z,26.01
2023-05-03T17:01:26.430Z,24.88
2023-05-03T17:06:28.727Z,23.82
2023-05-03T17:11:30.639Z,24.04
2023-05-03T17:16:32.234Z,23.91
2023-05-03T17:21:33.806Z,23.25
2023-05-03T17:26:35.407Z,23.31
2023-05-03T17:31:37.012Z,23.12
2023-05-03T17:36:38.560Z,22.44
2023-05-03T17:41:40.144Z,22.13
2023-05-03T17:46:41.925Z,21.58
2023-05-03T17:51:43.548Z,21.30
2023-05-03T17:56:45.113Z,21.00
2023-05-03T18:01:47.523Z,20.54
2023-05-03T18:06:49.097Z,20.08
2023-05-03T18:11:53.853Z,19.60
2023-05-03T18:16:55.445Z,19.40
2023-05-03T18:21:57.029Z,19.16
2023-05-03T18:26:58.559Z,19.25
2023-05-03T18:32:00.233Z,19.07
2023-05-03T18:37:01.871Z,18.87
2023-05-03T18:42:03.661Z,18.68
2023-05-03T18:47:05.369Z,18.31
2023-05-03T18:52:06.949Z,18.06
2023-05-03T18:57:08.539Z,17.83
2023-05-03T19:02:10.187Z,17.73
2023-05-03T19:07:11.738Z,17.68
2023-05-03T19:12:13.358Z,17.49
2023-05-03T19:17:14.925Z,17.30
2023-05-03T19:22:16.522Z,17.23
2023-05-03T19:27:18.256Z,17.06
2023-05-03T19:32:19.796Z,16.85
2023-05-03T19:37:21.346Z,16.85
2023-05-03T19:42:22.901Z,16.59
2023-05-03T19:47:24.471Z,16.38
2023-05-03T19:52:25.990Z,16.28
2023-05-03T19:57:27.566Z,16.06
2023-05-03T20:02:29.174Z,15.64
2023-05-03T20:07:30.800Z,15.39
2023-05-03T20:12:32.513Z,15.20
2023-05-03T20:17:34.146Z,14.74
2023-05-03T20:22:35.689Z,14.56
2023-05-03T20:27:37.317Z,14.58
2023-05-03T20:32:39.267Z,14.56
2023-05-03T20:37:40.860Z,14.50
2023-05-03T20:42:42.476Z,14.38
2023-05-03T20:47:44.045Z,14.34
2023-05-03T20:52:45.646Z,14.30
2023-05-03T20:57:47.317Z,13.93
2023-05-03T21:02:48.961Z,13.63
2023-05-03T21:07:51.290Z,13.75
2023-05-03T21:12:53.101Z,13.92
2023-05-03T21:17:54.741Z,14.04
2023-05-03T21:22:56.355Z,13.86
2023-05-03T21:27:57.979Z,13.76
2023-05-03T21:32:59.544Z,13.65
2023-05-03T21:38:01.210Z,13.22
2023-05-03T21:43:02.774Z,12.91
2023-05-03T21:48:04.679Z,12.77
2023-05-03T21:53:06.354Z,12.59
2023-05-03T21:58:07.886Z,12.39
2023-05-03T22:03:09.515Z,12.27
2023-05-03T22:08:11.137Z,11.84
2023-05-03T22:13:12.782Z,11.59
2023-05-03T22:18:14.345Z,11.77
2023-05-03T22:23:15.923Z,11.69
2023-05-03T22:28:17.461Z,11.34
2023-05-03T22:33:19.041Z,11.30
2023-05-03T22:38:20.716Z,11.45
2023-05-03T22:43:22.266Z,11.44
2023-05-03T22:48:23.821Z,11.66
2023-05-03T22:53:25.543Z,11.74
2023-05-03T22:58:27.654Z,11.55
2023-05-03T23:03:29.406Z,11.53
2023-05-03T23:08:31.009Z,11.70
2023-05-03T23:13:32.638Z,11.71
2023-05-03T23:18:34.355Z,11.67
2023-05-03T23:23:35.959Z,11.58
2023-05-03T23:28:37.496Z,11.55
2023-05-03T23:33:39.415Z,11.47
2023-05-03T23:38:41.258Z,11.45
2023-05-03T23:43:42.865Z,11.48
2023-05-03T23:48:44.396Z,11.38
2023-05-03T23:53:45.974Z,11.12
2023-05-03T23:58:47.593Z,10.96
